sensor_id;sensor_type;location;lat;lon;timestamp;P1;durP1;ratioP1;P2;durP2;ratioP2
67762;SDS011;54566;52.022;5.582;2023-08-21T00:01:51;11.60;;;3.10;;
67762;SDS011;54566;52.022;5.582;2023-08-21T00:04:17;12.95;;;3.28;;
67762;SDS011;54566;52.022;5.582;2023-08-21T00:06:43;12.00;;;3.20;;
67762;SDS011;54566;52.022;5.582;2023-08-21T00:09:10;10.52;;;3.13;;
67762;SDS011;54566;52.022;5.582;2023-08-21T00:11:36;14.55;;;3.05;;
67762;SDS011;54566;52.022;5.582;2023-08-21T00:14:02;9.32;;;2.83;;
67762;SDS011;54566;52.022;5.582;2023-08-21T00:16:28;10.93;;;3.50;;
67762;SDS011;54566;52.022;5.582;2023-08-21T00:18:54;16.17;;;3.53;;
67762;SDS011;54566;52.022;5.582;2023-08-21T00:21:21;12.15;;;3.13;;
67762;SDS011;54566;52.022;5.582;2023-08-21T00:23:48;13.45;;;3.10;;
67762;SDS011;54566;52.022;5.582;2023-08-21T00:26:15;13.85;;;4.43;;
67762;SDS011;54566;52.022;5.582;2023-08-21T00:28:41;12.90;;;3.38;;
67762;SDS011;54566;52.022;5.582;2023-08-21T00:31:07;10.98;;;3.40;;
67762;SDS011;54566;52.022;5.582;2023-08-21T00:33:35;9.70;;;3.00;;
67762;SDS011;54566;52.022;5.582;2023-08-21T00:36:02;13.27;;;3.15;;
67762;SDS011;54566;52.022;5.582;2023-08-21T00:38:28;10.73;;;3.30;;
67762;SDS011;54566;52.022;5.582;2023-08-21T00:40:54;11.52;;;3.17;;
67762;SDS011;54566;52.022;5.582;2023-08-21T00:43:20;8.43;;;3.50;;
67762;SDS011;54566;52.022;5.582;2023-08-21T00:45:46;14.10;;;3.15;;
67762;SDS011;54566;52.022;5.582;2023-08-21T00:48:13;12.35;;;3.88;;
67762;SDS011;54566;52.022;5.582;2023-08-21T00:50:39;10.15;;;3.30;;
67762;SDS011;54566;52.022;5.582;2023-08-21T00:53:05;13.68;;;3.13;;
67762;SDS011;54566;52.022;5.582;2023-08-21T00:55:31;12.73;;;3.35;;
67762;SDS011;54566;52.022;5.582;2023-08-21T00:57:58;13.43;;;3.13;;
67762;SDS011;54566;52.022;5.582;2023-08-21T01:00:24;9.40;;;3.10;;
67762;SDS011;54566;52.022;5.582;2023-08-21T01:02:50;8.07;;;2.75;;
67762;SDS011;54566;52.022;5.582;2023-08-21T01:05:18;8.50;;;2.83;;
67762;SDS011;54566;52.022;5.582;2023-08-21T01:07:52;9.82;;;2.88;;
67762;SDS011;54566;52.022;5.582;2023-08-21T01:10:20;11.35;;;3.75;;
67762;SDS011;54566;52.022;5.582;2023-08-21T01:15:14;12.55;;;3.47;;
67762;SDS011;54566;52.022;5.582;2023-08-21T01:17:40;10.90;;;3.25;;
67762;SDS011;54566;52.022;5.582;2023-08-21T01:20:07;8.40;;;2.90;;
67762;SDS011;54566;52.022;5.582;2023-08-21T01:22:38;8.15;;;3.25;;
67762;SDS011;54566;52.022;5.582;2023-08-21T01:25:04;9.48;;;3.00;;
67762;SDS011;54566;52.022;5.582;2023-08-21T01:27:30;8.30;;;3.58;;
67762;SDS011;54566;52.022;5.582;2023-08-21T01:29:57;9.55;;;3.15;;
67762;SDS011;54566;52.022;5.582;2023-08-21T01:32:25;7.03;;;2.70;;
67762;SDS011;54566;52.022;5.582;2023-08-21T01:34:53;9.15;;;3.00;;
67762;SDS011;54566;52.022;5.582;2023-08-21T01:37:21;11.40;;;3.28;;
67762;SDS011;54566;52.022;5.582;2023-08-21T01:39:47;14.95;;;3.75;;
67762;SDS011;54566;52.022;5.582;2023-08-21T01:42:13;10.88;;;3.40;;
67762;SDS011;54566;52.022;5.582;2023-08-21T01:44:39;8.63;;;2.75;;
67762;SDS011;54566;52.022;5.582;2023-08-21T01:47:05;8.02;;;2.55;;
67762;SDS011;54566;52.022;5.582;2023-08-21T01:49:31;13.57;;;3.42;;
67762;SDS011;54566;52.022;5.582;2023-08-21T01:51:57;12.48;;;3.40;;
67762;SDS011;54566;52.022;5.582;2023-08-21T01:54:23;7.07;;;3.00;;
67762;SDS011;54566;52.022;5.582;2023-08-21T01:56:49;11.68;;;3.72;;
67762;SDS011;54566;52.022;5.582;2023-08-21T01:59:16;13.32;;;3.47;;
67762;SDS011;54566;52.022;5.582;2023-08-21T02:01:42;11.27;;;3.03;;
67762;SDS011;54566;52.022;5.582;2023-08-21T02:04:08;7.93;;;3.28;;
67762;SDS011;54566;52.022;5.582;2023-08-21T02:06:34;15.02;;;3.60;;
67762;SDS011;54566;52.022;5.582;2023-08-21T02:09:00;11.63;;;4.00;;
67762;SDS011;54566;52.022;5.582;2023-08-21T02:11:26;11.30;;;3.70;;
67762;SDS011;54566;52.022;5.582;2023-08-21T02:13:52;10.25;;;3.75;;
67762;SDS011;54566;52.022;5.582;2023-08-21T02:16:18;9.07;;;3.80;;
67762;SDS011;54566;52.022;5.582;2023-08-21T02:21:13;10.07;;;3.58;;
67762;SDS011;54566;52.022;5.582;2023-08-21T02:23:39;8.00;;;3.15;;
67762;SDS011;54566;52.022;5.582;2023-08-21T02:26:05;11.70;;;3.42;;
67762;SDS011;54566;52.022;5.582;2023-08-21T02:28:31;6.35;;;3.00;;
67762;SDS011;54566;52.022;5.582;2023-08-21T02:30:57;11.40;;;3.40;;
67762;SDS011;54566;52.022;5.582;2023-08-21T02:33:23;12.20;;;3.67;;
67762;SDS011;54566;52.022;5.582;2023-08-21T02:35:49;8.90;;;3.20;;
67762;SDS011;54566;52.022;5.582;2023-08-21T02:38:16;7.57;;;3.23;;
67762;SDS011;54566;52.022;5.582;2023-08-21T02:40:42;10.70;;;3.30;;
67762;SDS011;54566;52.022;5.582;2023-08-21T02:43:08;10.45;;;3.67;;
67762;SDS011;54566;52.022;5.582;2023-08-21T02:45:34;12.55;;;3.38;;
67762;SDS011;54566;52.022;5.582;2023-08-21T02:48:00;10.02;;;3.60;;
67762;SDS011;54566;52.022;5.582;2023-08-21T02:50:26;18.83;;;3.72;;
67762;SDS011;54566;52.022;5.582;2023-08-21T02:52:52;10.30;;;3.67;;
67762;SDS011;54566;52.022;5.582;2023-08-21T02:55:18;10.82;;;3.55;;
67762;SDS011;54566;52.022;5.582;2023-08-21T02:57:45;10.35;;;3.70;;
67762;SDS011;54566;52.022;5.582;2023-08-21T03:00:11;6.47;;;3.40;;
67762;SDS011;54566;52.022;5.582;2023-08-21T03:02:37;9.25;;;3.60;;
67762;SDS011;54566;52.022;5.582;2023-08-21T03:05:07;7.03;;;3.30;;
67762;SDS011;54566;52.022;5.582;2023-08-21T03:07:34;10.23;;;3.42;;
67762;SDS011;54566;52.022;5.582;2023-08-21T03:10:00;9.20;;;3.60;;
67762;SDS011;54566;52.022;5.582;2023-08-21T03:12:27;13.93;;;3.50;;
67762;SDS011;54566;52.022;5.582;2023-08-21T03:14:53;8.63;;;3.60;;
67762;SDS011;54566;52.022;5.582;2023-08-21T03:17:19;6.32;;;3.03;;
67762;SDS011;54566;52.022;5.582;2023-08-21T03:19:45;9.13;;;3.22;;
67762;SDS011;54566;52.022;5.582;2023-08-21T03:22:11;9.85;;;3.50;;
67762;SDS011;54566;52.022;5.582;2023-08-21T03:24:39;8.13;;;2.92;;
67762;SDS011;54566;52.022;5.582;2023-08-21T03:27:05;10.38;;;3.25;;
67762;SDS011;54566;52.022;5.582;2023-08-21T03:29:32;7.88;;;3.47;;
67762;SDS011;54566;52.022;5.582;2023-08-21T03:31:58;8.35;;;3.60;;
67762;SDS011;54566;52.022;5.582;2023-08-21T03:34:24;8.52;;;3.42;;
67762;SDS011;54566;52.022;5.582;2023-08-21T03:36:50;11.65;;;4.13;;
67762;SDS011;54566;52.022;5.582;2023-08-21T03:39:16;10.07;;;3.97;;
67762;SDS011;54566;52.022;5.582;2023-08-21T03:41:42;8.40;;;3.90;;
67762;SDS011;54566;52.022;5.582;2023-08-21T03:44:08;15.55;;;4.00;;
67762;SDS011;54566;52.022;5.582;2023-08-21T03:46:34;14.75;;;4.18;;
67762;SDS011;54566;52.022;5.582;2023-08-21T03:49:00;10.10;;;4.18;;
67762;SDS011;54566;52.022;5.582;2023-08-21T03:51:26;10.20;;;3.88;;
67762;SDS011;54566;52.022;5.582;2023-08-21T03:53:52;10.15;;;3.90;;
67762;SDS011;54566;52.022;5.582;2023-08-21T03:56:18;9.70;;;3.88;;
67762;SDS011;54566;52.022;5.582;2023-08-21T03:58:44;20.88;;;4.75;;
67762;SDS011;54566;52.022;5.582;2023-08-21T04:01:10;11.18;;;4.32;;
67762;SDS011;54566;52.022;5.582;2023-08-21T04:03:37;22.02;;;4.60;;
67762;SDS011;54566;52.022;5.582;2023-08-21T04:06:03;15.93;;;4.47;;
67762;SDS011;54566;52.022;5.582;2023-08-21T04:08:29;9.82;;;3.92;;
67762;SDS011;54566;52.022;5.582;2023-08-21T04:10:55;11.20;;;3.83;;
67762;SDS011;54566;52.022;5.582;2023-08-21T04:13:25;10.65;;;4.47;;
67762;SDS011;54566;52.022;5.582;2023-08-21T04:15:53;14.18;;;4.30;;
67762;SDS011;54566;52.022;5.582;2023-08-21T04:18:19;10.40;;;3.95;;
67762;SDS011;54566;52.022;5.582;2023-08-21T04:20:47;16.30;;;4.40;;
67762;SDS011;54566;52.022;5.582;2023-08-21T04:23:13;14.68;;;4.57;;
67762;SDS011;54566;52.022;5.582;2023-08-21T04:25:39;14.25;;;4.22;;
67762;SDS011;54566;52.022;5.582;2023-08-21T04:28:08;13.23;;;4.38;;
67762;SDS011;54566;52.022;5.582;2023-08-21T04:30:34;12.32;;;4.43;;
67762;SDS011;54566;52.022;5.582;2023-08-21T04:33:00;10.95;;;4.07;;
67762;SDS011;54566;52.022;5.582;2023-08-21T04:35:26;15.30;;;4.00;;
67762;SDS011;54566;52.022;5.582;2023-08-21T04:37:52;11.50;;;4.03;;
67762;SDS011;54566;52.022;5.582;2023-08-21T04:40:18;13.48;;;4.32;;
67762;SDS011;54566;52.022;5.582;2023-08-21T04:42:46;13.65;;;4.30;;
67762;SDS011;54566;52.022;5.582;2023-08-21T04:45:12;15.25;;;4.25;;
67762;SDS011;54566;52.022;5.582;2023-08-21T04:47:38;22.02;;;4.20;;
67762;SDS011;54566;52.022;5.582;2023-08-21T04:50:04;12.35;;;4.45;;
67762;SDS011;54566;52.022;5.582;2023-08-21T04:52:31;10.55;;;4.47;;
67762;SDS011;54566;52.022;5.582;2023-08-21T04:54:57;15.30;;;4.57;;
67762;SDS011;54566;52.022;5.582;2023-08-21T04:57:25;13.05;;;4.72;;
67762;SDS011;54566;52.022;5.582;2023-08-21T04:59:53;8.95;;;3.97;;
67762;SDS011;54566;52.022;5.582;2023-08-21T05:02:19;10.83;;;4.30;;
67762;SDS011;54566;52.022;5.582;2023-08-21T05:04:45;14.68;;;4.18;;
67762;SDS011;54566;52.022;5.582;2023-08-21T05:07:11;12.00;;;3.90;;
67762;SDS011;54566;52.022;5.582;2023-08-21T05:09:37;11.65;;;4.28;;
67762;SDS011;54566;52.022;5.582;2023-08-21T05:12:03;15.77;;;3.92;;
67762;SDS011;54566;52.022;5.582;2023-08-21T05:14:29;8.45;;;3.65;;
67762;SDS011;54566;52.022;5.582;2023-08-21T05:16:56;20.35;;;4.95;;
67762;SDS011;54566;52.022;5.582;2023-08-21T05:19:25;11.88;;;4.20;;
67762;SDS011;54566;52.022;5.582;2023-08-21T05:21:52;11.73;;;3.90;;
67762;SDS011;54566;52.022;5.582;2023-08-21T05:24:18;9.50;;;4.70;;
67762;SDS011;54566;52.022;5.582;2023-08-21T05:26:44;11.35;;;3.95;;
67762;SDS011;54566;52.022;5.582;2023-08-21T05:29:10;11.38;;;4.03;;
67762;SDS011;54566;52.022;5.582;2023-08-21T05:31:36;12.77;;;4.63;;
67762;SDS011;54566;52.022;5.582;2023-08-21T05:34:05;14.18;;;4.80;;
67762;SDS011;54566;52.022;5.582;2023-08-21T05:36:31;12.57;;;4.53;;
67762;SDS011;54566;52.022;5.582;2023-08-21T05:38:57;14.90;;;4.55;;
67762;SDS011;54566;52.022;5.582;2023-08-21T05:41:23;13.57;;;4.53;;
67762;SDS011;54566;52.022;5.582;2023-08-21T05:43:51;15.70;;;4.78;;
67762;SDS011;54566;52.022;5.582;2023-08-21T05:46:18;15.57;;;5.00;;
67762;SDS011;54566;52.022;5.582;2023-08-21T05:48:44;10.48;;;4.30;;
67762;SDS011;54566;52.022;5.582;2023-08-21T05:51:10;17.33;;;4.45;;
67762;SDS011;54566;52.022;5.582;2023-08-21T05:53:57;11.85;;;4.65;;
67762;SDS011;54566;52.022;5.582;2023-08-21T05:56:33;13.85;;;4.20;;
67762;SDS011;54566;52.022;5.582;2023-08-21T05:59:13;16.80;;;5.13;;
67762;SDS011;54566;52.022;5.582;2023-08-21T06:01:55;14.05;;;4.72;;
67762;SDS011;54566;52.022;5.582;2023-08-21T06:04:21;18.45;;;5.10;;
67762;SDS011;54566;52.022;5.582;2023-08-21T06:06:47;29.98;;;5.10;;
67762;SDS011;54566;52.022;5.582;2023-08-21T06:09:13;14.93;;;4.65;;
67762;SDS011;54566;52.022;5.582;2023-08-21T06:11:41;15.32;;;5.03;;
67762;SDS011;54566;52.022;5.582;2023-08-21T06:14:07;26.45;;;5.22;;
67762;SDS011;54566;52.022;5.582;2023-08-21T06:16:33;18.48;;;4.88;;
67762;SDS011;54566;52.022;5.582;2023-08-21T06:18:59;30.38;;;5.47;;
67762;SDS011;54566;52.022;5.582;2023-08-21T06:21:25;15.82;;;5.80;;
67762;SDS011;54566;52.022;5.582;2023-08-21T06:23:51;25.77;;;5.50;;
67762;SDS011;54566;52.022;5.582;2023-08-21T06:26:17;12.98;;;4.68;;
67762;SDS011;54566;52.022;5.582;2023-08-21T06:28:43;19.13;;;5.20;;
67762;SDS011;54566;52.022;5.582;2023-08-21T06:31:09;17.38;;;5.30;;
67762;SDS011;54566;52.022;5.582;2023-08-21T06:33:35;18.88;;;5.60;;
67762;SDS011;54566;52.022;5.582;2023-08-21T06:36:01;16.13;;;5.13;;
67762;SDS011;54566;52.022;5.582;2023-08-21T06:38:27;24.98;;;5.45;;
67762;SDS011;54566;52.022;5.582;2023-08-21T06:40:53;13.73;;;4.90;;
67762;SDS011;54566;52.022;5.582;2023-08-21T06:43:19;16.10;;;4.75;;
67762;SDS011;54566;52.022;5.582;2023-08-21T06:45:46;17.88;;;4.78;;
67762;SDS011;54566;52.022;5.582;2023-08-21T06:48:12;23.83;;;5.03;;
67762;SDS011;54566;52.022;5.582;2023-08-21T06:50:38;17.38;;;4.45;;
67762;SDS011;54566;52.022;5.582;2023-08-21T06:53:04;16.50;;;4.88;;
67762;SDS011;54566;52.022;5.582;2023-08-21T06:55:30;23.27;;;4.70;;
67762;SDS011;54566;52.022;5.582;2023-08-21T06:57:59;26.67;;;4.82;;
67762;SDS011;54566;52.022;5.582;2023-08-21T07:00:25;17.05;;;4.15;;
67762;SDS011;54566;52.022;5.582;2023-08-21T07:02:51;13.55;;;5.00;;
67762;SDS011;54566;52.022;5.582;2023-08-21T07:05:17;14.63;;;4.22;;
67762;SDS011;54566;52.022;5.582;2023-08-21T07:07:43;14.02;;;4.30;;
67762;SDS011;54566;52.022;5.582;2023-08-21T07:10:09;14.50;;;4.40;;
67762;SDS011;54566;52.022;5.582;2023-08-21T07:12:35;15.93;;;4.32;;
67762;SDS011;54566;52.022;5.582;2023-08-21T07:15:01;14.25;;;4.25;;
67762;SDS011;54566;52.022;5.582;2023-08-21T07:17:27;19.90;;;4.32;;
67762;SDS011;54566;52.022;5.582;2023-08-21T07:19:53;16.45;;;3.97;;
67762;SDS011;54566;52.022;5.582;2023-08-21T07:22:19;8.35;;;3.70;;
67762;SDS011;54566;52.022;5.582;2023-08-21T07:24:46;8.90;;;4.10;;
67762;SDS011;54566;52.022;5.582;2023-08-21T07:27:14;10.07;;;2.65;;
67762;SDS011;54566;52.022;5.582;2023-08-21T07:29:40;16.10;;;2.95;;
67762;SDS011;54566;52.022;5.582;2023-08-21T07:32:06;12.48;;;3.25;;
67762;SDS011;54566;52.022;5.582;2023-08-21T07:34:32;12.57;;;3.33;;
67762;SDS011;54566;52.022;5.582;2023-08-21T07:36:59;16.83;;;4.00;;
67762;SDS011;54566;52.022;5.582;2023-08-21T07:39:26;18.85;;;4.15;;
67762;SDS011;54566;52.022;5.582;2023-08-21T07:41:52;12.27;;;2.80;;
67762;SDS011;54566;52.022;5.582;2023-08-21T07:44:18;18.08;;;3.42;;
67762;SDS011;54566;52.022;5.582;2023-08-21T07:46:44;8.80;;;2.00;;
67762;SDS011;54566;52.022;5.582;2023-08-21T07:49:10;9.25;;;1.65;;
67762;SDS011;54566;52.022;5.582;2023-08-21T07:51:36;11.38;;;2.10;;
67762;SDS011;54566;52.022;5.582;2023-08-21T07:54:02;11.35;;;2.67;;
67762;SDS011;54566;52.022;5.582;2023-08-21T07:56:28;8.70;;;2.30;;
67762;SDS011;54566;52.022;5.582;2023-08-21T07:58:54;10.88;;;2.45;;
67762;SDS011;54566;52.022;5.582;2023-08-21T08:01:22;11.38;;;2.50;;
67762;SDS011;54566;52.022;5.582;2023-08-21T08:03:49;11.50;;;2.75;;
67762;SDS011;54566;52.022;5.582;2023-08-21T08:06:15;16.63;;;3.22;;
67762;SDS011;54566;52.022;5.582;2023-08-21T08:08:45;16.30;;;3.33;;
67762;SDS011;54566;52.022;5.582;2023-08-21T08:11:11;17.15;;;3.67;;
67762;SDS011;54566;52.022;5.582;2023-08-21T08:13:38;15.00;;;2.92;;
67762;SDS011;54566;52.022;5.582;2023-08-21T08:16:04;17.52;;;3.15;;
67762;SDS011;54566;52.022;5.582;2023-08-21T08:18:34;30.80;;;3.53;;
67762;SDS011;54566;52.022;5.582;2023-08-21T08:21:01;16.42;;;3.15;;
67762;SDS011;54566;52.022;5.582;2023-08-21T08:23:28;17.25;;;3.72;;
67762;SDS011;54566;52.022;5.582;2023-08-21T08:25:54;11.70;;;3.50;;
67762;SDS011;54566;52.022;5.582;2023-08-21T08:28:20;13.63;;;3.38;;
67762;SDS011;54566;52.022;5.582;2023-08-21T08:30:46;13.23;;;3.45;;
67762;SDS011;54566;52.022;5.582;2023-08-21T08:33:12;13.48;;;2.92;;
67762;SDS011;54566;52.022;5.582;2023-08-21T08:35:38;13.48;;;2.85;;
67762;SDS011;54566;52.022;5.582;2023-08-21T08:38:05;7.45;;;2.65;;
67762;SDS011;54566;52.022;5.582;2023-08-21T08:40:31;15.52;;;2.88;;
67762;SDS011;54566;52.022;5.582;2023-08-21T08:42:58;20.20;;;3.20;;
67762;SDS011;54566;52.022;5.582;2023-08-21T08:45:32;13.10;;;3.00;;
67762;SDS011;54566;52.022;5.582;2023-08-21T08:48:01;22.20;;;3.13;;
67762;SDS011;54566;52.022;5.582;2023-08-21T08:50:28;17.90;;;4.07;;
67762;SDS011;54566;52.022;5.582;2023-08-21T08:52:58;12.50;;;2.83;;
67762;SDS011;54566;52.022;5.582;2023-08-21T08:55:25;11.35;;;2.72;;
67762;SDS011;54566;52.022;5.582;2023-08-21T09:01:06;10.45;;;2.80;;
67762;SDS011;54566;52.022;5.582;2023-08-21T09:03:35;10.10;;;2.80;;
67762;SDS011;54566;52.022;5.582;2023-08-21T09:06:01;20.17;;;3.58;;
67762;SDS011;54566;52.022;5.582;2023-08-21T09:08:27;10.27;;;2.78;;
67762;SDS011;54566;52.022;5.582;2023-08-21T09:10:53;11.18;;;2.65;;
67762;SDS011;54566;52.022;5.582;2023-08-21T09:13:19;13.60;;;2.25;;
67762;SDS011;54566;52.022;5.582;2023-08-21T09:15:46;10.95;;;2.40;;
67762;SDS011;54566;52.022;5.582;2023-08-21T09:18:13;13.80;;;3.05;;
67762;SDS011;54566;52.022;5.582;2023-08-21T09:20:40;9.77;;;2.33;;
67762;SDS011;54566;52.022;5.582;2023-08-21T09:23:06;14.68;;;2.60;;
67762;SDS011;54566;52.022;5.582;2023-08-21T09:25:36;7.13;;;2.10;;
67762;SDS011;54566;52.022;5.582;2023-08-21T09:28:08;7.95;;;1.95;;
67762;SDS011;54566;52.022;5.582;2023-08-21T09:33:30;9.20;;;3.03;;
67762;SDS011;54566;52.022;5.582;2023-08-21T09:35:56;9.77;;;1.77;;
67762;SDS011;54566;52.022;5.582;2023-08-21T09:38:25;8.15;;;1.92;;
67762;SDS011;54566;52.022;5.582;2023-08-21T09:40:53;10.88;;;1.77;;
67762;SDS011;54566;52.022;5.582;2023-08-21T09:43:20;6.55;;;1.67;;
67762;SDS011;54566;52.022;5.582;2023-08-21T09:45:47;9.25;;;1.52;;
67762;SDS011;54566;52.022;5.582;2023-08-21T09:48:14;9.45;;;1.48;;
67762;SDS011;54566;52.022;5.582;2023-08-21T09:50:41;7.93;;;1.70;;
67762;SDS011;54566;52.022;5.582;2023-08-21T09:53:11;9.35;;;1.80;;
67762;SDS011;54566;52.022;5.582;2023-08-21T09:55:38;12.30;;;1.90;;
67762;SDS011;54566;52.022;5.582;2023-08-21T09:58:06;9.70;;;2.08;;
67762;SDS011;54566;52.022;5.582;2023-08-21T10:00:33;6.60;;;1.67;;
67762;SDS011;54566;52.022;5.582;2023-08-21T10:03:01;8.23;;;1.95;;
67762;SDS011;54566;52.022;5.582;2023-08-21T10:07:54;15.73;;;1.80;;
67762;SDS011;54566;52.022;5.582;2023-08-21T10:10:21;11.67;;;1.80;;
67762;SDS011;54566;52.022;5.582;2023-08-21T10:12:50;6.00;;;1.65;;
67762;SDS011;54566;52.022;5.582;2023-08-21T10:15:16;5.25;;;1.73;;
67762;SDS011;54566;52.022;5.582;2023-08-21T10:17:42;10.18;;;1.48;;
67762;SDS011;54566;52.022;5.582;2023-08-21T10:20:11;8.05;;;1.85;;
67762;SDS011;54566;52.022;5.582;2023-08-21T10:22:44;5.15;;;1.60;;
67762;SDS011;54566;52.022;5.582;2023-08-21T10:25:14;7.93;;;1.58;;
67762;SDS011;54566;52.022;5.582;2023-08-21T10:27:42;9.07;;;1.50;;
67762;SDS011;54566;52.022;5.582;2023-08-21T10:30:15;5.30;;;1.37;;
67762;SDS011;54566;52.022;5.582;2023-08-21T10:32:47;5.50;;;1.30;;
67762;SDS011;54566;52.022;5.582;2023-08-21T10:35:14;7.93;;;1.30;;
67762;SDS011;54566;52.022;5.582;2023-08-21T10:40:28;7.40;;;1.30;;
67762;SDS011;54566;52.022;5.582;2023-08-21T10:42:55;4.97;;;1.23;;
67762;SDS011;54566;52.022;5.582;2023-08-21T10:45:21;4.75;;;1.00;;
67762;SDS011;54566;52.022;5.582;2023-08-21T10:47:47;4.95;;;1.38;;
67762;SDS011;54566;52.022;5.582;2023-08-21T10:50:15;4.13;;;1.10;;
67762;SDS011;54566;52.022;5.582;2023-08-21T10:52:42;8.30;;;1.02;;
67762;SDS011;54566;52.022;5.582;2023-08-21T10:55:10;6.72;;;1.30;;
67762;SDS011;54566;52.022;5.582;2023-08-21T10:57:37;2.78;;;0.82;;
67762;SDS011;54566;52.022;5.582;2023-08-21T11:00:13;5.15;;;1.15;;
67762;SDS011;54566;52.022;5.582;2023-08-21T11:02:42;5.10;;;1.50;;
67762;SDS011;54566;52.022;5.582;2023-08-21T11:05:09;7.53;;;1.25;;
67762;SDS011;54566;52.022;5.582;2023-08-21T11:07:42;5.77;;;1.10;;
67762;SDS011;54566;52.022;5.582;2023-08-21T11:10:16;8.45;;;1.17;;
67762;SDS011;54566;52.022;5.582;2023-08-21T11:12:53;12.30;;;1.50;;
67762;SDS011;54566;52.022;5.582;2023-08-21T11:15:23;9.18;;;1.20;;
67762;SDS011;54566;52.022;5.582;2023-08-21T11:17:51;7.20;;;1.42;;
67762;SDS011;54566;52.022;5.582;2023-08-21T11:20:17;5.47;;;1.40;;
67762;SDS011;54566;52.022;5.582;2023-08-21T11:22:43;4.55;;;1.10;;
67762;SDS011;54566;52.022;5.582;2023-08-21T11:25:09;9.38;;;1.20;;
67762;SDS011;54566;52.022;5.582;2023-08-21T11:27:35;8.63;;;1.85;;
67762;SDS011;54566;52.022;5.582;2023-08-21T11:30:01;5.78;;;1.30;;
67762;SDS011;54566;52.022;5.582;2023-08-21T11:32:28;3.78;;;1.23;;
67762;SDS011;54566;52.022;5.582;2023-08-21T11:34:54;5.85;;;1.45;;
67762;SDS011;54566;52.022;5.582;2023-08-21T11:37:21;7.43;;;1.00;;
67762;SDS011;54566;52.022;5.582;2023-08-21T11:39:52;6.65;;;1.30;;
67762;SDS011;54566;52.022;5.582;2023-08-21T11:42:19;6.88;;;1.38;;
67762;SDS011;54566;52.022;5.582;2023-08-21T11:44:52;8.25;;;1.55;;
67762;SDS011;54566;52.022;5.582;2023-08-21T11:47:19;10.77;;;1.38;;
67762;SDS011;54566;52.022;5.582;2023-08-21T11:49:45;4.13;;;0.88;;
67762;SDS011;54566;52.022;5.582;2023-08-21T11:52:14;4.95;;;1.10;;
67762;SDS011;54566;52.022;5.582;2023-08-21T11:54:40;4.75;;;0.93;;
67762;SDS011;54566;52.022;5.582;2023-08-21T11:57:07;5.35;;;0.88;;
67762;SDS011;54566;52.022;5.582;2023-08-21T11:59:34;3.92;;;1.00;;
67762;SDS011;54566;52.022;5.582;2023-08-21T12:02:00;6.07;;;1.10;;
67762;SDS011;54566;52.022;5.582;2023-08-21T12:04:26;5.85;;;1.50;;
67762;SDS011;54566;52.022;5.582;2023-08-21T12:06:52;7.95;;;1.42;;
67762;SDS011;54566;52.022;5.582;2023-08-21T12:09:18;4.15;;;1.25;;
67762;SDS011;54566;52.022;5.582;2023-08-21T12:11:45;7.75;;;1.25;;
67762;SDS011;54566;52.022;5.582;2023-08-21T12:14:11;6.00;;;1.30;;
67762;SDS011;54566;52.022;5.582;2023-08-21T12:16:37;4.20;;;1.17;;
67762;SDS011;54566;52.022;5.582;2023-08-21T12:19:03;6.22;;;1.60;;
67762;SDS011;54566;52.022;5.582;2023-08-21T12:21:29;6.35;;;1.35;;
67762;SDS011;54566;52.022;5.582;2023-08-21T12:23:55;4.03;;;1.10;;
67762;SDS011;54566;52.022;5.582;2023-08-21T12:26:21;5.95;;;1.38;;
67762;SDS011;54566;52.022;5.582;2023-08-21T12:28:48;10.20;;;1.50;;
67762;SDS011;54566;52.022;5.582;2023-08-21T12:31:14;3.93;;;1.07;;
67762;SDS011;54566;52.022;5.582;2023-08-21T12:33:41;3.50;;;0.93;;
67762;SDS011;54566;52.022;5.582;2023-08-21T12:36:07;5.65;;;1.23;;
67762;SDS011;54566;52.022;5.582;2023-08-21T12:38:36;9.90;;;1.42;;
67762;SDS011;54566;52.022;5.582;2023-08-21T12:41:02;9.57;;;1.27;;
67762;SDS011;54566;52.022;5.582;2023-08-21T12:43:28;6.15;;;1.10;;
67762;SDS011;54566;52.022;5.582;2023-08-21T12:45:54;3.75;;;1.10;;
67762;SDS011;54566;52.022;5.582;2023-08-21T12:48:20;8.30;;;1.30;;
67762;SDS011;54566;52.022;5.582;2023-08-21T12:50:46;4.85;;;1.13;;
67762;SDS011;54566;52.022;5.582;2023-08-21T12:53:12;5.70;;;1.48;;
67762;SDS011;54566;52.022;5.582;2023-08-21T12:55:38;6.13;;;1.20;;
67762;SDS011;54566;52.022;5.582;2023-08-21T12:58:05;4.07;;;1.23;;
67762;SDS011;54566;52.022;5.582;2023-08-21T13:00:31;5.07;;;1.13;;
67762;SDS011;54566;52.022;5.582;2023-08-21T13:02:57;4.73;;;1.20;;
67762;SDS011;54566;52.022;5.582;2023-08-21T13:05:23;4.45;;;1.20;;
67762;SDS011;54566;52.022;5.582;2023-08-21T13:07:50;3.83;;;1.10;;
67762;SDS011;54566;52.022;5.582;2023-08-21T13:10:16;8.02;;;1.58;;
67762;SDS011;54566;52.022;5.582;2023-08-21T13:12:42;8.57;;;1.20;;
67762;SDS011;54566;52.022;5.582;2023-08-21T13:15:08;4.63;;;1.10;;
67762;SDS011;54566;52.022;5.582;2023-08-21T13:17:35;4.60;;;1.10;;
67762;SDS011;54566;52.022;5.582;2023-08-21T13:20:02;9.23;;;1.57;;
67762;SDS011;54566;52.022;5.582;2023-08-21T13:22:28;8.07;;;1.50;;
67762;SDS011;54566;52.022;5.582;2023-08-21T13:24:54;8.88;;;1.35;;
67762;SDS011;54566;52.022;5.582;2023-08-21T13:27:20;5.35;;;0.95;;
67762;SDS011;54566;52.022;5.582;2023-08-21T13:29:47;4.45;;;0.98;;
67762;SDS011;54566;52.022;5.582;2023-08-21T13:32:12;2.95;;;1.10;;
67762;SDS011;54566;52.022;5.582;2023-08-21T13:34:39;3.13;;;0.77;;
67762;SDS011;54566;52.022;5.582;2023-08-21T13:37:05;6.43;;;0.90;;
67762;SDS011;54566;52.022;5.582;2023-08-21T13:39:31;6.60;;;1.13;;
67762;SDS011;54566;52.022;5.582;2023-08-21T13:41:57;3.92;;;0.90;;
67762;SDS011;54566;52.022;5.582;2023-08-21T13:44:23;8.40;;;0.95;;
67762;SDS011;54566;52.022;5.582;2023-08-21T13:46:49;7.18;;;1.10;;
67762;SDS011;54566;52.022;5.582;2023-08-21T13:49:15;5.10;;;0.93;;
67762;SDS011;54566;52.022;5.582;2023-08-21T13:51:41;4.97;;;1.20;;
67762;SDS011;54566;52.022;5.582;2023-08-21T13:54:07;5.07;;;1.42;;
67762;SDS011;54566;52.022;5.582;2023-08-21T13:56:33;8.30;;;0.98;;
67762;SDS011;54566;52.022;5.582;2023-08-21T13:58:59;2.63;;;0.90;;
67762;SDS011;54566;52.022;5.582;2023-08-21T14:01:25;4.78;;;0.88;;
67762;SDS011;54566;52.022;5.582;2023-08-21T14:03:51;2.13;;;0.80;;
67762;SDS011;54566;52.022;5.582;2023-08-21T14:06:17;4.32;;;1.00;;
67762;SDS011;54566;52.022;5.582;2023-08-21T14:08:43;7.85;;;0.98;;
67762;SDS011;54566;52.022;5.582;2023-08-21T14:11:09;6.05;;;1.13;;
67762;SDS011;54566;52.022;5.582;2023-08-21T14:13:35;5.65;;;1.23;;
67762;SDS011;54566;52.022;5.582;2023-08-21T14:16:02;4.05;;;1.33;;
67762;SDS011;54566;52.022;5.582;2023-08-21T14:18:28;5.57;;;1.35;;
67762;SDS011;54566;52.022;5.582;2023-08-21T14:20:54;4.82;;;1.27;;
67762;SDS011;54566;52.022;5.582;2023-08-21T14:23:20;5.22;;;1.20;;
67762;SDS011;54566;52.022;5.582;2023-08-21T14:25:46;2.53;;;1.20;;
67762;SDS011;54566;52.022;5.582;2023-08-21T14:28:12;6.75;;;1.13;;
67762;SDS011;54566;52.022;5.582;2023-08-21T14:30:38;5.70;;;1.10;;
67762;SDS011;54566;52.022;5.582;2023-08-21T14:33:06;5.78;;;1.27;;
67762;SDS011;54566;52.022;5.582;2023-08-21T14:35:32;4.53;;;1.00;;
67762;SDS011;54566;52.022;5.582;2023-08-21T14:37:58;4.45;;;1.10;;
67762;SDS011;54566;52.022;5.582;2023-08-21T14:40:24;8.85;;;1.15;;
67762;SDS011;54566;52.022;5.582;2023-08-21T14:42:50;10.50;;;1.70;;
67762;SDS011;54566;52.022;5.582;2023-08-21T14:45:16;4.40;;;1.00;;
67762;SDS011;54566;52.022;5.582;2023-08-21T14:47:42;4.60;;;1.58;;
67762;SDS011;54566;52.022;5.582;2023-08-21T14:50:08;8.63;;;1.00;;
67762;SDS011;54566;52.022;5.582;2023-08-21T14:52:35;4.43;;;1.00;;
67762;SDS011;54566;52.022;5.582;2023-08-21T14:55:01;4.68;;;1.15;;